createdAt,value
2019-03-04T00:00:53.802Z,10.9
2019-03-04T00:02:03.175Z,10.9
2019-03-04T00:03:12.599Z,11
2019-03-04T00:04:21.948Z,10.9
2019-03-04T00:05:31.450Z,11
2019-03-04T00:06:40.966Z,11
2019-03-04T00:07:50.086Z,10.9
2019-03-04T00:08:59.497Z,11
2019-03-04T00:10:08.865Z,10.9
2019-03-04T00:11:18.254Z,10.9
2019-03-04T00:12:27.640Z,11
2019-03-04T00:13:37.016Z,11
2019-03-04T00:14:46.478Z,11
2019-03-04T00:15:55.809Z,11
2019-03-04T00:17:05.167Z,11
2019-03-04T00:18:14.575Z,11
2019-03-04T00:19:23.947Z,11.1
2019-03-04T00:20:33.324Z,11
2019-03-04T00:21:42.708Z,11
2019-03-04T00:22:52.094Z,11
2019-03-04T00:24:01.489Z,10.9
2019-03-04T00:25:10.868Z,11.1
2019-03-04T00:26:20.264Z,11.1
2019-03-04T00:27:29.642Z,11.1
2019-03-04T00:28:39.047Z,11
2019-03-04T00:29:48.405Z,11
2019-03-04T00:30:57.793Z,11
2019-03-04T00:32:07.237Z,11
2019-03-04T00:33:16.583Z,10.9
2019-03-04T00:34:26.023Z,10.9
2019-03-04T00:35:35.335Z,10.9
2019-03-04T00:36:44.748Z,10.9
2019-03-04T00:37:54.114Z,10.9
2019-03-04T00:39:03.518Z,11
2019-03-04T00:40:12.878Z,10.9
2019-03-04T00:41:22.261Z,10.9
2019-03-04T00:42:31.645Z,10.8
2019-03-04T00:43:41.032Z,10.9
2019-03-04T00:44:50.456Z,10.8
2019-03-04T00:45:59.828Z,10.8
2019-03-04T00:47:09.189Z,10.8
2019-03-04T00:48:18.601Z,10.8
2019-03-04T00:49:27.949Z,10.8
2019-03-04T00:50:37.335Z,10.8
2019-03-04T00:51:46.723Z,10.8
2019-03-04T00:52:56.206Z,10.8
2019-03-04T00:54:05.477Z,10.7
2019-03-04T00:55:14.870Z,10.8
2019-03-04T00:56:24.251Z,10.8
2019-03-04T00:57:33.625Z,10.8
2019-03-04T00:58:43.033Z,10.7
2019-03-04T00:59:52.391Z,10.7
2019-03-04T01:01:01.867Z,10.8
2019-03-04T01:02:11.162Z,10.8
2019-03-04T01:03:20.596Z,10.8
2019-03-04T01:04:29.920Z,10.7
2019-03-04T01:05:39.297Z,10.7
2019-03-04T01:06:48.826Z,10.8
2019-03-04T01:07:58.091Z,10.7
2019-03-04T01:09:07.443Z,10.7
2019-03-04T01:10:16.826Z,10.7
2019-03-04T01:11:26.222Z,10.7
2019-03-04T01:12:35.584Z,10.7
2019-03-04T01:13:44.971Z,10.7
2019-03-04T01:14:54.473Z,10.7
2019-03-04T01:16:03.732Z,10.7
2019-03-04T01:17:13.126Z,10.7
2019-03-04T01:18:22.493Z,10.7
2019-03-04T01:19:31.888Z,10.7
2019-03-04T01:20:41.290Z,10.7
2019-03-04T01:21:50.640Z,10.7
2019-03-04T01:23:00.027Z,10.8
2019-03-04T01:24:09.510Z,10.7
2019-03-04T01:25:18.782Z,10.7
2019-03-04T01:26:28.203Z,10.7
2019-03-04T01:27:37.573Z,10.7
2019-03-04T01:28:46.929Z,10.8
2019-03-04T01:29:56.473Z,10.8
2019-03-04T01:31:05.689Z,10.8
2019-03-04T01:32:15.081Z,10.8
2019-03-04T01:33:24.455Z,10.8
2019-03-04T01:34:33.831Z,10.7
2019-03-04T01:35:43.222Z,10.7
2019-03-04T01:36:52.702Z,10.7
2019-03-04T01:38:01.968Z,10.7
2019-03-04T01:39:11.529Z,10.7
2019-03-04T01:40:20.783Z,10.7
2019-03-04T01:41:30.123Z,10.7
2019-03-04T01:42:39.513Z,10.7
2019-03-04T01:43:48.875Z,10.7
2019-03-04T01:44:58.259Z,10.7
2019-03-04T01:46:07.635Z,10.6
2019-03-04T01:47:17.027Z,10.6
2019-03-04T01:48:26.427Z,10.6
2019-03-04T01:49:35.804Z,10.5
2019-03-04T01:50:45.160Z,10.6
2019-03-04T01:51:54.552Z,10.5
2019-03-04T01:53:03.902Z,10.6
2019-03-04T01:54:13.333Z,10.5
2019-03-04T01:55:22.657Z,10.5
2019-03-04T01:56:32.089Z,10.5
2019-03-04T01:57:41.582Z,10.5
2019-03-04T01:58:50.897Z,10.4
2019-03-04T02:00:00.247Z,10.4
2019-03-04T02:01:09.526Z,10.4
2019-03-04T02:02:18.943Z,10.5
2019-03-04T02:03:28.277Z,10.5
2019-03-04T02:04:37.648Z,10.4
2019-03-04T02:05:47.019Z,10.4
2019-03-04T02:06:56.387Z,10.5
2019-03-04T02:08:05.766Z,10.4
2019-03-04T02:09:15.138Z,10.4
2019-03-04T02:10:24.553Z,10.4
2019-03-04T02:11:33.873Z,10.3
2019-03-04T02:12:43.273Z,10.4
2019-03-04T02:13:52.610Z,10.3
2019-03-04T02:15:02.023Z,10.3
2019-03-04T02:16:11.367Z,10.3
2019-03-04T02:17:20.739Z,10.4
2019-03-04T02:18:30.120Z,10.3
2019-03-04T02:19:39.473Z,10.3
2019-03-04T02:20:48.846Z,10.3
2019-03-04T02:21:58.238Z,10.3
2019-03-04T02:23:07.572Z,10.2
2019-03-04T02:24:16.952Z,10.2
2019-03-04T02:25:26.429Z,10.3
2019-03-04T02:26:35.695Z,10.2
2019-03-04T02:27:45.066Z,10.3
2019-03-04T02:28:54.464Z,10.2
2019-03-04T02:30:03.787Z,10.3
2019-03-04T02:31:13.187Z,10.2
2019-03-04T02:32:22.611Z,10.2
2019-03-04T02:33:32.001Z,10.2
2019-03-04T02:34:41.252Z,10.2
2019-03-04T02:35:50.722Z,10.2
2019-03-04T02:37:00.255Z,10.2
2019-03-04T02:38:09.360Z,10.1
2019-03-04T02:39:18.723Z,10.2
2019-03-04T02:40:28.095Z,10.2
2019-03-04T02:41:37.443Z,10.1
2019-03-04T02:42:46.840Z,10.2
2019-03-04T02:43:56.182Z,10.2
2019-03-04T02:45:05.559Z,10.2
2019-03-04T02:46:15.010Z,10.2
2019-03-04T02:47:24.356Z,10.3
2019-03-04T02:48:33.639Z,10.2
2019-03-04T02:49:42.992Z,10.2
2019-03-04T02:50:52.363Z,10.2
2019-03-04T02:52:01.721Z,10.2
2019-03-04T02:53:11.120Z,10.2
2019-03-04T02:54:20.459Z,10.2
2019-03-04T02:55:29.811Z,10.2
2019-03-04T02:56:39.217Z,10.2
2019-03-04T02:57:48.531Z,10.2
2019-03-04T02:58:57.920Z,10.3
2019-03-04T03:00:07.268Z,10.2
2019-03-04T03:01:16.620Z,10.3
2019-03-04T03:02:25.979Z,10.3
2019-03-04T03:03:35.339Z,10.3
2019-03-04T03:04:44.729Z,10.3
2019-03-04T03:05:54.067Z,10.1
2019-03-04T03:07:03.756Z,10.2
2019-03-04T03:08:12.801Z,10.1
2019-03-04T03:09:22.169Z,10.2
2019-03-04T03:10:31.572Z,10.2
2019-03-04T03:11:40.912Z,10.3
2019-03-04T03:12:50.253Z,10.2
2019-03-04T03:13:59.664Z,10.2
2019-03-04T03:15:08.974Z,10.3
2019-03-04T03:16:18.371Z,10.2
2019-03-04T03:17:27.711Z,10.3
2019-03-04T03:18:37.080Z,10.3
2019-03-04T03:19:46.578Z,10.3
2019-03-04T03:20:55.819Z,10.3
2019-03-04T03:22:05.160Z,10.2
2019-03-04T03:23:14.535Z,10.3
2019-03-04T03:24:23.888Z,10.3
2019-03-04T03:25:33.250Z,10.2
2019-03-04T03:26:42.621Z,10.2
2019-03-04T03:27:51.975Z,10.2
2019-03-04T03:29:01.431Z,10.2
2019-03-04T03:30:10.713Z,10.1
2019-03-04T03:31:20.089Z,10.2
2019-03-04T03:32:29.440Z,10.3
2019-03-04T03:33:38.899Z,10.2
2019-03-04T03:34:48.461Z,10.1
2019-03-04T03:35:57.537Z,10.1
2019-03-04T03:37:06.901Z,10.2
2019-03-04T03:38:16.358Z,10.1
2019-03-04T03:39:25.659Z,10.2
2019-03-04T03:40:34.977Z,10.2
2019-03-04T03:41:44.388Z,10.2
2019-03-04T03:42:53.706Z,10.2
2019-03-04T03:44:03.135Z,10.1
2019-03-04T03:45:12.441Z,10.1
2019-03-04T03:46:21.811Z,10.3
2019-03-04T03:47:31.213Z,10.2
2019-03-04T03:48:40.519Z,10.1
2019-03-04T03:49:49.877Z,10.2
2019-03-04T03:50:59.257Z,10.1
2019-03-04T03:52:08.610Z,10.2
2019-03-04T03:53:17.967Z,10.2
2019-03-04T03:54:27.350Z,10.2
2019-03-04T03:55:36.691Z,10.2
2019-03-04T03:56:46.056Z,10.2
2019-03-04T03:57:55.429Z,10.2
2019-03-04T03:59:04.859Z,10.1
2019-03-04T04:00:14.206Z,10.2
2019-03-04T04:01:23.525Z,10.2
2019-03-04T04:02:32.918Z,10.2
2019-03-04T04:03:42.277Z,10.1
2019-03-04T04:04:51.608Z,10.1
2019-03-04T04:06:00.987Z,10.3
2019-03-04T04:07:10.339Z,10.2
2019-03-04T04:08:19.718Z,10.2
2019-03-04T04:09:29.079Z,10.1
2019-03-04T04:10:38.455Z,10.2
2019-03-04T04:11:47.791Z,10.1
2019-03-04T04:12:57.179Z,10.2
2019-03-04T04:14:06.513Z,10.1
2019-03-04T04:15:15.880Z,10.2
2019-03-04T04:16:25.244Z,10.1
2019-03-04T04:17:34.599Z,10.1
2019-03-04T04:18:43.984Z,10.2
2019-03-04T04:19:53.330Z,10.2
2019-03-04T04:21:02.696Z,10.1
2019-03-04T04:22:12.073Z,10.2
2019-03-04T04:23:21.473Z,10.2
2019-03-04T04:24:30.832Z,10.2
2019-03-04T04:25:40.254Z,10.3
2019-03-04T04:26:49.549Z,10.3
2019-03-04T04:27:58.887Z,10.1
2019-03-04T04:29:08.246Z,10.2
2019-03-04T04:30:17.620Z,10.2
2019-03-04T04:31:26.972Z,10.2
2019-03-04T04:32:36.345Z,10.2
2019-03-04T04:33:45.711Z,10.2
2019-03-04T04:34:55.075Z,10.1
2019-03-04T04:36:04.471Z,10.1
2019-03-04T04:37:13.820Z,10.1
2019-03-04T04:38:23.238Z,10.2
2019-03-04T04:39:32.564Z,10.2
2019-03-04T04:40:41.902Z,10.2
2019-03-04T04:41:51.267Z,10.2
2019-03-04T04:43:00.633Z,10.1
2019-03-04T04:44:09.992Z,10.2
2019-03-04T04:45:19.418Z,10.2
2019-03-04T04:46:28.719Z,10.1
2019-03-04T04:47:38.092Z,10.1
2019-03-04T04:48:47.519Z,10.1
2019-03-04T04:49:56.900Z,10.1
2019-03-04T04:51:06.186Z,10.1
2019-03-04T04:52:15.550Z,10.1
2019-03-04T04:53:24.917Z,10.1
2019-03-04T04:54:34.283Z,10.1
2019-03-04T04:55:43.701Z,10.1
2019-03-04T04:56:53.011Z,10.1
2019-03-04T04:58:02.497Z,10.1
2019-03-04T04:59:11.736Z,10.1
2019-03-04T05:00:21.100Z,10.1
2019-03-04T05:01:30.466Z,10.1
2019-03-04T05:02:39.825Z,10.2
2019-03-04T05:03:49.196Z,10.1
2019-03-04T05:04:58.562Z,10.1
2019-03-04T05:06:07.953Z,10.1
2019-03-04T05:07:17.370Z,10.1
2019-03-04T05:08:26.654Z,10.1
2019-03-04T05:09:36.031Z,10.1
2019-03-04T05:10:45.391Z,10.1
2019-03-04T05:11:54.741Z,10.1
2019-03-04T05:13:04.107Z,10.1
2019-03-04T05:14:13.488Z,10.1
2019-03-04T05:15:22.852Z,10.1
2019-03-04T05:16:32.452Z,10.1
2019-03-04T05:17:41.565Z,10.1
2019-03-04T05:18:50.932Z,10.1
2019-03-04T05:20:00.437Z,10.1
2019-03-04T05:21:09.660Z,10
2019-03-04T05:22:19.034Z,10
2019-03-04T05:23:28.393Z,9.9
2019-03-04T05:24:37.740Z,9.9
2019-03-04T05:25:47.113Z,9.8
2019-03-04T05:26:56.486Z,9.9
2019-03-04T05:28:05.830Z,9.9
2019-03-04T05:29:15.195Z,9.8
2019-03-04T05:30:24.545Z,9.9
2019-03-04T05:31:33.916Z,10
2019-03-04T05:32:43.304Z,10
2019-03-04T05:33:52.619Z,9.9
2019-03-04T05:35:02.011Z,10
2019-03-04T05:36:11.342Z,10
2019-03-04T05:47:45.819Z,10
2019-03-04T05:48:54.310Z,10.1
2019-03-04T05:50:03.699Z,10
2019-03-04T05:51:13.015Z,10
2019-03-04T05:52:22.415Z,10
2019-03-04T05:53:31.743Z,10
2019-03-04T05:54:41.114Z,10
2019-03-04T05:55:50.462Z,10
2019-03-04T05:56:59.815Z,10
2019-03-04T05:58:09.189Z,10.1
2019-03-04T05:59:19.843Z,10
2019-03-04T06:00:27.888Z,10
2019-03-04T06:01:37.250Z,10.1
2019-03-04T06:02:46.627Z,10
2019-03-04T06:03:55.982Z,10
2019-03-04T06:05:05.339Z,10
2019-03-04T06:06:14.703Z,10
2019-03-04T06:07:24.107Z,10
2019-03-04T06:08:33.433Z,10
2019-03-04T06:09:42.791Z,10.1
2019-03-04T06:10:52.209Z,10.1
2019-03-04T06:12:01.512Z,10
2019-03-04T06:13:10.878Z,10.1
2019-03-04T06:14:20.253Z,10.1
2019-03-04T06:15:29.609Z,10.2
2019-03-04T06:16:46.946Z,10.1
2019-03-04T06:17:48.339Z,10.2
2019-03-04T06:18:57.719Z,10.1
2019-03-04T06:20:07.069Z,10.1
2019-03-04T06:21:16.492Z,10.1
2019-03-04T06:22:25.807Z,10
2019-03-04T06:23:35.167Z,10.1
2019-03-04T06:24:44.539Z,10.1
2019-03-04T06:25:53.886Z,10.1
2019-03-04T06:27:03.340Z,10.1
2019-03-04T06:28:12.658Z,10.1
2019-03-04T06:29:21.992Z,10.2
2019-03-04T06:30:31.473Z,10.2
2019-03-04T06:31:40.733Z,10.2
2019-03-04T06:32:50.085Z,10.1
2019-03-04T06:33:59.449Z,10.1
2019-03-04T06:35:08.846Z,10.2
2019-03-04T06:36:18.179Z,10.2
2019-03-04T06:37:27.545Z,10.2
2019-03-04T06:38:36.976Z,10.2
2019-03-04T06:39:46.370Z,10.2
2019-03-04T06:40:55.650Z,10.1
2019-03-04T06:42:05.035Z,10.2
2019-03-04T06:43:14.453Z,10.1
2019-03-04T06:44:23.758Z,10.1
2019-03-04T06:45:33.182Z,10.1
2019-03-04T06:46:42.539Z,10.2
2019-03-04T06:47:51.896Z,10.2
2019-03-04T06:49:01.281Z,10.1
2019-03-04T06:50:10.606Z,10.1
2019-03-04T06:51:19.975Z,10.2
2019-03-04T06:52:29.340Z,10.1
2019-03-04T06:53:38.712Z,10.1
2019-03-04T06:54:48.078Z,10.1
2019-03-04T06:55:57.511Z,10.1
2019-03-04T06:57:06.822Z,10.1
2019-03-04T06:58:16.286Z,10.1
2019-03-04T06:59:25.596Z,10.1
2019-03-04T07:00:34.943Z,10.1
2019-03-04T07:01:44.338Z,10.3
2019-03-04T07:02:53.684Z,10.3
2019-03-04T07:04:03.175Z,10.3
2019-03-04T07:05:12.429Z,10.3
2019-03-04T07:06:21.808Z,10.2
2019-03-04T07:07:31.273Z,10.1
2019-03-04T07:08:40.569Z,10.2
2019-03-04T07:09:49.932Z,10.2
2019-03-04T07:10:59.293Z,10.3
2019-03-04T07:12:08.725Z,10.2
2019-03-04T07:13:18.038Z,10.2
2019-03-04T07:14:27.414Z,10.3
2019-03-04T07:15:36.851Z,10.3
2019-03-04T07:16:46.300Z,10.3
2019-03-04T07:17:55.545Z,10.4
2019-03-04T07:19:04.904Z,10.3
2019-03-04T07:20:14.294Z,10.4
2019-03-04T07:21:23.668Z,10.4
2019-03-04T07:22:33.066Z,10.5
2019-03-04T07:23:42.415Z,10.5
2019-03-04T07:24:51.804Z,10.5
2019-03-04T07:26:01.246Z,10.5
2019-03-04T07:27:10.568Z,10.5
2019-03-04T07:28:19.934Z,10.6
2019-03-04T07:29:29.329Z,10.5
2019-03-04T07:30:38.698Z,10.5
2019-03-04T07:31:48.074Z,10.6
2019-03-04T07:32:57.448Z,10.6
2019-03-04T07:34:07.036Z,10.7
2019-03-04T07:35:16.281Z,10.7
2019-03-04T07:36:25.605Z,10.7
2019-03-04T07:37:34.965Z,10.7
2019-03-04T07:38:44.367Z,10.8
2019-03-04T07:39:53.748Z,10.8
2019-03-04T07:41:03.127Z,10.8
2019-03-04T07:42:12.513Z,10.8
2019-03-04T07:43:21.909Z,10.8
2019-03-04T07:44:31.388Z,10.9
2019-03-04T07:45:40.674Z,10.9
2019-03-04T07:46:50.065Z,10.9
2019-03-04T07:48:00.280Z,10.9
2019-03-04T07:49:08.846Z,11
2019-03-04T07:50:18.228Z,11
2019-03-04T07:51:27.615Z,11
2019-03-04T07:52:37.573Z,11.1
2019-03-04T07:53:46.879Z,11.1
2019-03-04T07:54:55.833Z,11.1
2019-03-04T07:56:05.216Z,11.1
2019-03-04T07:57:14.554Z,11
2019-03-04T07:58:25.726Z,11.1
2019-03-04T07:59:33.330Z,11.1
2019-03-04T08:00:42.734Z,11.1
2019-03-04T08:01:52.114Z,11.2
2019-03-04T08:03:01.530Z,11.1
2019-03-04T08:04:10.919Z,11.1
2019-03-04T08:05:20.366Z,11.1
2019-03-04T08:06:29.745Z,11.1
2019-03-04T08:07:39.102Z,11.2
2019-03-04T08:08:48.526Z,11.2
2019-03-04T08:09:57.877Z,11.2
2019-03-04T08:11:07.261Z,11.2
2019-03-04T08:12:16.674Z,11.2
2019-03-04T08:13:26.081Z,11.2
2019-03-04T08:14:35.448Z,11.2
2019-03-04T08:15:44.851Z,11.3
2019-03-04T08:16:54.235Z,11.3
2019-03-04T08:18:03.662Z,11.3
2019-03-04T08:19:13.057Z,11.3
2019-03-04T08:20:22.473Z,11.3
2019-03-04T08:21:31.841Z,11.3
2019-03-04T08:22:41.242Z,11.3
2019-03-04T08:23:50.681Z,11.3
2019-03-04T08:25:00.055Z,11.3
2019-03-04T08:26:09.469Z,11.3
2019-03-04T08:27:18.861Z,11.4
2019-03-04T08:28:28.251Z,11.3
2019-03-04T08:29:37.670Z,11.3
2019-03-04T08:30:47.090Z,11.3
2019-03-04T08:31:56.468Z,11.4
2019-03-04T08:33:05.874Z,11.4
2019-03-04T08:34:15.316Z,11.4
2019-03-04T08:35:24.701Z,11.5
2019-03-04T08:36:34.102Z,11.5
2019-03-04T08:37:43.540Z,11.6
2019-03-04T08:38:52.960Z,11.7
2019-03-04T08:40:02.528Z,11.6
2019-03-04T08:41:11.794Z,11.7
2019-03-04T08:42:21.342Z,11.7
2019-03-04T08:43:30.682Z,11.7
2019-03-04T08:44:40.100Z,11.8
2019-03-04T08:45:49.540Z,11.8
2019-03-04T08:46:58.941Z,11.7
2019-03-04T08:48:08.370Z,11.7
2019-03-04T08:49:17.779Z,11.7
2019-03-04T08:50:27.212Z,11.6
2019-03-04T08:51:36.781Z,11.7
2019-03-04T08:52:46.089Z,11.6
2019-03-04T08:53:55.493Z,11.7
2019-03-04T08:55:04.983Z,11.7
2019-03-04T08:56:14.391Z,11.8
2019-03-04T08:57:23.782Z,11.8
2019-03-04T08:58:34.340Z,11.8
2019-03-04T08:59:42.659Z,11.8
2019-03-04T09:00:52.116Z,11.8
2019-03-04T09:02:01.487Z,11.8
2019-03-04T09:03:10.925Z,11.8
2019-03-04T09:04:20.344Z,11.8
2019-03-04T09:05:29.782Z,11.8
2019-03-04T09:06:39.325Z,11.9
2019-03-04T09:07:48.634Z,11.9
2019-03-04T09:08:58.050Z,11.9
2019-03-04T09:10:07.525Z,11.9
2019-03-04T09:11:16.918Z,12
2019-03-04T09:12:26.340Z,12
2019-03-04T09:13:35.759Z,12
2019-03-04T09:14:45.182Z,12
2019-03-04T09:15:54.612Z,12.1
2019-03-04T09:17:04.027Z,12.1
2019-03-04T09:18:13.455Z,12.1
2019-03-04T09:19:22.950Z,12.2
2019-03-04T09:20:32.387Z,12.2
2019-03-04T09:21:41.817Z,12.2
2019-03-04T09:22:51.170Z,12.2
2019-03-04T09:24:00.640Z,12.2
2019-03-04T09:25:10.026Z,12.3
2019-03-04T09:26:19.488Z,12.3
2019-03-04T09:27:28.906Z,12.3
2019-03-04T09:28:38.418Z,12.3
2019-03-04T09:29:47.749Z,12.4
2019-03-04T09:30:57.179Z,12.5
2019-03-04T09:32:06.689Z,12.5
2019-03-04T09:33:16.059Z,12.4
2019-03-04T09:34:25.504Z,12.5
2019-03-04T09:35:34.933Z,12.5
2019-03-04T09:36:44.686Z,12.5
2019-03-04T09:37:53.814Z,12.5
2019-03-04T09:39:03.323Z,12.5
2019-03-04T09:40:12.718Z,12.5
2019-03-04T09:41:22.100Z,12.6
2019-03-04T09:42:31.618Z,12.6
2019-03-04T09:43:40.968Z,12.6
2019-03-04T09:44:50.459Z,12.6
2019-03-04T09:45:59.847Z,12.6
2019-03-04T09:47:09.397Z,12.6
2019-03-04T09:48:18.782Z,12.6
2019-03-04T09:50:37.596Z,12.6
2019-03-04T09:51:47.110Z,12.7
2019-03-04T09:52:56.500Z,12.6
2019-03-04T09:54:05.948Z,12.6
2019-03-04T09:55:15.343Z,12.6
2019-03-04T09:56:24.789Z,12.7
2019-03-04T09:57:34.245Z,12.6
2019-03-04T09:58:43.730Z,12.7
2019-03-04T09:59:53.110Z,12.7
2019-03-04T10:01:02.692Z,12.7
2019-03-04T10:02:11.981Z,12.8
2019-03-04T10:03:21.438Z,12.8
2019-03-04T10:04:30.878Z,12.8
2019-03-04T10:05:40.334Z,12.8
2019-03-04T10:06:49.957Z,12.8
2019-03-04T10:07:59.211Z,12.9
2019-03-04T10:09:08.660Z,12.9
2019-03-04T10:10:18.149Z,12.9
2019-03-04T10:11:27.572Z,12.9
2019-03-04T10:12:37.031Z,12.9
2019-03-04T10:13:46.482Z,12.9
2019-03-04T10:14:55.922Z,13
2019-03-04T10:16:05.366Z,13.1
2019-03-04T10:17:14.815Z,13.1
2019-03-04T10:18:24.279Z,13.1
2019-03-04T10:19:33.726Z,13.2
2019-03-04T10:20:43.187Z,13.1
2019-03-04T10:21:52.644Z,13.2
2019-03-04T10:23:02.097Z,13.3
2019-03-04T10:24:11.587Z,13.3
2019-03-04T10:25:21.018Z,13.5
2019-03-04T10:26:30.477Z,13.5
2019-03-04T10:27:39.955Z,13.5
2019-03-04T10:28:49.418Z,13.6
2019-03-04T10:29:58.865Z,13.9
2019-03-04T10:31:08.495Z,14.2
2019-03-04T10:32:17.899Z,14.3
2019-03-04T10:33:27.401Z,14.6
2019-03-04T10:34:36.808Z,14.7
2019-03-04T10:35:46.425Z,15
2019-03-04T10:38:05.318Z,14.7
2019-03-04T10:39:14.814Z,14.8
2019-03-04T10:40:24.345Z,14.8
2019-03-04T10:41:33.822Z,14.8
2019-03-04T10:42:43.333Z,14.8
2019-03-04T10:43:52.839Z,14.8
2019-03-04T10:45:02.366Z,14.9
2019-03-04T10:46:11.933Z,14.9
2019-03-04T10:47:21.361Z,15
2019-03-04T10:48:30.844Z,15
2019-03-04T10:49:40.398Z,15.1
2019-03-04T10:50:49.868Z,15.1
2019-03-04T10:51:59.352Z,15.2
2019-03-04T10:53:08.936Z,15.2
2019-03-04T10:54:18.474Z,15.2
2019-03-04T10:55:27.871Z,15.2
2019-03-04T10:56:37.390Z,15.2
2019-03-04T10:57:46.886Z,15.3
2019-03-04T10:58:56.444Z,15.2
2019-03-04T11:00:05.925Z,15.2
2019-03-04T11:01:15.457Z,15.2
2019-03-04T11:02:24.915Z,15.2
2019-03-04T11:03:34.489Z,15.2
2019-03-04T11:04:44.011Z,15.2
2019-03-04T11:05:53.443Z,15.2
2019-03-04T11:07:02.952Z,15.1
2019-03-04T11:08:12.519Z,15.1
2019-03-04T11:09:21.980Z,15.1
2019-03-04T11:10:31.555Z,15.1
2019-03-04T11:11:41.020Z,15.2
2019-03-04T11:12:50.498Z,15.2
2019-03-04T11:14:00.004Z,15.2
2019-03-04T11:15:09.525Z,15.2
2019-03-04T11:16:19.033Z,15.5
2019-03-04T11:17:28.590Z,15.5
2019-03-04T11:18:38.095Z,15.4
2019-03-04T11:19:47.692Z,15.3
2019-03-04T11:20:57.125Z,13.7
2019-03-04T11:22:06.661Z,12.9
2019-03-04T11:23:16.272Z,11.8
2019-03-04T11:24:25.692Z,11.2
2019-03-04T11:25:35.163Z,10.4
2019-03-04T11:26:44.671Z,10.1
2019-03-04T11:27:54.270Z,9.9
2019-03-04T11:29:03.613Z,9.8
2019-03-04T11:30:13.070Z,9.7
2019-03-04T11:31:22.820Z,9.7
2019-03-04T11:32:32.210Z,9.7
2019-03-04T11:33:41.503Z,9.6
2019-03-04T11:34:50.863Z,9.6
2019-03-04T11:36:00.277Z,9.6
2019-03-04T11:37:09.694Z,9.6
2019-03-04T11:38:19.107Z,9.6
2019-03-04T11:39:28.545Z,9.5
2019-03-04T11:40:37.966Z,9.6
2019-03-04T11:41:47.433Z,9.6
2019-03-04T11:42:56.737Z,9.6
2019-03-04T11:44:06.143Z,9.7
2019-03-04T11:45:15.553Z,9.7
2019-03-04T11:46:24.963Z,9.7
2019-03-04T11:47:34.324Z,9.6
2019-03-04T11:48:43.776Z,9.5
2019-03-04T11:49:53.490Z,9.5
2019-03-04T11:51:02.588Z,9.4
2019-03-04T11:52:11.913Z,9.2
2019-03-04T11:53:21.258Z,9
2019-03-04T11:54:30.666Z,9.1
2019-03-04T11:55:40.019Z,9.2
2019-03-04T11:56:49.400Z,9.2
2019-03-04T11:57:58.766Z,9.3
2019-03-04T11:59:08.116Z,9.2
2019-03-04T12:00:17.565Z,9.2
2019-03-04T12:01:26.853Z,9.2
2019-03-04T12:02:39.069Z,9.3
2019-03-04T12:03:45.621Z,9.3
2019-03-04T12:04:54.950Z,9.3
2019-03-04T12:06:04.344Z,9.3
2019-03-04T12:07:13.691Z,9.4
2019-03-04T12:08:23.037Z,9.4
2019-03-04T12:09:32.427Z,9.4
2019-03-04T12:10:41.823Z,9.4
2019-03-04T12:11:51.176Z,9.4
2019-03-04T12:13:00.543Z,9.5
2019-03-04T12:14:09.846Z,9.5
2019-03-04T12:15:19.205Z,9.5
2019-03-04T12:16:28.573Z,9.5
2019-03-04T12:17:38.005Z,9.7
2019-03-04T12:18:47.370Z,9.8
2019-03-04T12:19:56.691Z,10.1
2019-03-04T12:21:06.059Z,10.3
2019-03-04T12:22:15.542Z,10.4
2019-03-04T12:23:24.829Z,10.5
2019-03-04T12:24:34.243Z,10.9
2019-03-04T12:25:43.608Z,11.1
2019-03-04T12:26:53.016Z,11.3
2019-03-04T12:28:02.512Z,11.4
2019-03-04T12:29:11.868Z,11.1
2019-03-04T12:30:21.237Z,11
2019-03-04T12:31:30.672Z,10.9
2019-03-04T12:32:40.043Z,10.9
2019-03-04T12:33:49.453Z,10.8
2019-03-04T12:34:58.893Z,10.8
2019-03-04T12:36:08.269Z,10.8
2019-03-04T12:37:17.709Z,10.7
2019-03-04T12:38:27.099Z,10.7
2019-03-04T12:39:36.507Z,10.7
2019-03-04T12:40:45.921Z,10.8
2019-03-04T12:41:55.351Z,10.9
2019-03-04T12:43:04.747Z,11
2019-03-04T12:44:14.188Z,10.8
2019-03-04T12:45:33.577Z,11
2019-03-04T12:46:33.062Z,11.2
2019-03-04T12:47:42.444Z,11.3
2019-03-04T12:48:52.278Z,11.4
2019-03-04T12:50:01.371Z,11.3
2019-03-04T12:51:10.863Z,11.2
2019-03-04T12:52:20.393Z,11.2
2019-03-04T12:53:36.973Z,11.4
2019-03-04T12:54:39.025Z,11.5
2019-03-04T12:55:48.652Z,11.7
2019-03-04T12:56:57.911Z,11.3
2019-03-04T12:58:07.406Z,11.5
2019-03-04T12:59:16.798Z,11.3
2019-03-04T13:00:26.276Z,11.6
2019-03-04T13:01:35.691Z,11.9
2019-03-04T13:02:45.141Z,11.7
2019-03-04T13:03:54.630Z,11.6
2019-03-04T13:05:04.057Z,11.8
2019-03-04T13:06:13.511Z,11.9
2019-03-04T13:07:22.965Z,11.8
2019-03-04T13:08:32.553Z,11.8
2019-03-04T13:09:41.913Z,12
2019-03-04T13:10:51.338Z,12.1
2019-03-04T13:12:00.860Z,12.1
2019-03-04T13:13:10.248Z,12.3
2019-03-04T13:14:19.731Z,11.9
2019-03-04T13:15:29.315Z,12
2019-03-04T13:16:38.670Z,12.1
2019-03-04T13:17:48.355Z,12.1
2019-03-04T13:18:57.697Z,12.3
2019-03-04T13:20:07.031Z,12.5
2019-03-04T13:21:16.503Z,12.5
2019-03-04T13:22:25.957Z,12.4
2019-03-04T13:23:35.427Z,13
2019-03-04T13:24:44.902Z,13.3
2019-03-04T13:25:54.384Z,13.6
2019-03-04T13:27:03.874Z,13.5
2019-03-04T13:28:13.697Z,13.7
2019-03-04T13:29:22.960Z,13.6
2019-03-04T13:30:32.400Z,13.7
2019-03-04T13:31:41.872Z,13.6
2019-03-04T13:32:51.408Z,14
2019-03-04T13:34:00.909Z,13.8
2019-03-04T13:35:10.487Z,13.6
2019-03-04T13:36:19.924Z,13.6
2019-03-04T13:37:29.462Z,13.8
2019-03-04T13:38:38.955Z,14.1
2019-03-04T13:39:48.537Z,13.8
2019-03-04T13:40:58.013Z,13.8
2019-03-04T13:42:07.499Z,13.8
2019-03-04T13:43:17.009Z,13.7
2019-03-04T13:44:26.573Z,13.9
2019-03-04T13:45:36.045Z,13.7
2019-03-04T13:46:45.564Z,13.8
2019-03-04T13:47:55.040Z,13.8
2019-03-04T13:49:04.566Z,13.6
2019-03-04T13:50:14.079Z,13.8
2019-03-04T13:51:23.572Z,14.1
2019-03-04T13:52:33.167Z,14
2019-03-04T13:53:42.737Z,14.1
2019-03-04T13:54:52.232Z,14.3
2019-03-04T13:56:01.647Z,14.3
2019-03-04T13:57:11.161Z,14.4
2019-03-04T13:58:20.749Z,14.4
2019-03-04T13:59:30.214Z,14.1
2019-03-04T14:00:39.737Z,14.1
2019-03-04T14:01:49.431Z,14.2
2019-03-04T14:02:58.839Z,14.4
2019-03-04T14:04:08.343Z,14.5
2019-03-04T14:05:18.040Z,14.4
2019-03-04T14:06:27.419Z,14.2
2019-03-04T14:07:36.960Z,14.3
2019-03-04T14:08:46.512Z,14.1
2019-03-04T14:09:56.054Z,14.6
2019-03-04T14:11:05.636Z,14.6
2019-03-04T14:12:15.124Z,14.7
2019-03-04T14:13:24.702Z,14.6
2019-03-04T14:14:34.227Z,14
2019-03-04T14:15:43.862Z,14.4
2019-03-04T14:16:53.277Z,14.4
2019-03-04T14:18:02.808Z,14.1
2019-03-04T14:19:12.368Z,14.2
2019-03-04T14:20:21.907Z,14
2019-03-04T14:21:31.477Z,14.1
2019-03-04T14:22:40.929Z,14.2
2019-03-04T14:23:50.451Z,14.2
2019-03-04T14:25:00.022Z,14.2
2019-03-04T14:26:09.512Z,14.2
2019-03-04T14:27:18.984Z,14.2
2019-03-04T14:28:28.517Z,14.2
2019-03-04T14:29:38.010Z,14.1
2019-03-04T14:30:47.566Z,13.9
2019-03-04T14:31:57.082Z,13.9
2019-03-04T14:33:06.536Z,14.1
2019-03-04T14:34:16.047Z,14.1
2019-03-04T14:35:25.528Z,14.1
2019-03-04T14:36:35.156Z,13.9
2019-03-04T14:37:44.520Z,14.1
2019-03-04T14:38:54.242Z,13.8
2019-03-04T14:40:03.537Z,13.9
2019-03-04T14:41:13.016Z,13.9
2019-03-04T14:42:22.530Z,13.9
2019-03-04T14:43:31.992Z,13.8
2019-03-04T14:44:41.687Z,13.8
2019-03-04T14:45:50.973Z,13.8
2019-03-04T14:47:00.486Z,13.9
2019-03-04T14:48:09.958Z,14
2019-03-04T14:49:19.453Z,14
2019-03-04T14:50:28.987Z,14.1
2019-03-04T14:51:38.464Z,14.4
2019-03-04T14:52:47.991Z,14.2
2019-03-04T14:53:57.495Z,14.6
2019-03-04T14:55:07.008Z,14.4
2019-03-04T14:56:22.231Z,14
2019-03-04T14:57:26.097Z,14.2
2019-03-04T14:58:35.574Z,14.2
2019-03-04T14:59:45.081Z,14
2019-03-04T15:00:54.675Z,14
2019-03-04T15:02:04.091Z,13.8
2019-03-04T15:03:20.865Z,13.8
2019-03-04T15:04:23.039Z,13.7
2019-03-04T15:05:32.756Z,13.7
2019-03-04T15:07:51.511Z,13.6
2019-03-04T15:09:00.992Z,13.6
2019-03-04T15:10:11.927Z,13.6
2019-03-04T15:11:19.950Z,13.6
2019-03-04T15:12:29.452Z,13.6
2019-03-04T15:13:38.962Z,13.7
2019-03-04T15:14:48.402Z,13.7
2019-03-04T15:16:01.281Z,13.8
2019-03-04T15:17:07.394Z,13.8
2019-03-04T15:18:16.862Z,13.8
2019-03-04T15:19:26.358Z,13.8
2019-03-04T15:20:35.851Z,13.8
2019-03-04T15:21:45.361Z,13.8
2019-03-04T15:22:54.827Z,13.8
2019-03-04T15:24:04.329Z,13.7
2019-03-04T15:25:13.811Z,13.7
2019-03-04T15:26:23.273Z,13.7
2019-03-04T15:27:32.859Z,13.7
2019-03-04T15:28:42.238Z,13.6
2019-03-04T15:29:51.711Z,13.5
2019-03-04T15:31:01.194Z,13.6
2019-03-04T15:32:10.670Z,13.5
2019-03-04T15:33:20.368Z,13.5
2019-03-04T15:34:29.662Z,13.6
2019-03-04T15:35:39.108Z,13.5
2019-03-04T15:36:48.664Z,13.5
2019-03-04T15:37:58.060Z,13.5
2019-03-04T15:39:07.530Z,13.4
2019-03-04T15:40:17.073Z,13.4
2019-03-04T15:41:26.477Z,13.4
2019-03-04T15:42:35.949Z,13.4
2019-03-04T15:43:45.423Z,13.4
2019-03-04T15:44:54.876Z,13.4